createdAt,value
2022-10-01T00:01:46.512Z,12.54
2022-10-01T00:06:03.731Z,12.53
2022-10-01T00:10:16.100Z,12.52
2022-10-01T00:14:27.967Z,12.43
2022-10-01T00:18:42.203Z,12.35
2022-10-01T00:22:53.829Z,12.36
2022-10-01T00:27:05.363Z,12.35
2022-10-01T00:31:16.913Z,12.31
2022-10-01T00:35:28.644Z,12.32
2022-10-01T00:39:40.111Z,12.27
2022-10-01T00:44:18.248Z,12.11
2022-10-01T00:48:34.785Z,12.20
2022-10-01T00:52:52.270Z,12.16
2022-10-01T00:57:07.179Z,12.13
2022-10-01T01:01:19.044Z,12.16
2022-10-01T01:05:30.890Z,12.19
2022-10-01T01:09:46.249Z,12.26
2022-10-01T01:14:16.389Z,12.14
2022-10-01T01:18:53.008Z,12.13
2022-10-01T01:23:25.327Z,12.16
2022-10-01T01:27:42.073Z,12.11
2022-10-01T01:31:58.784Z,12.06
2022-10-01T01:36:16.414Z,11.95
2022-10-01T01:40:31.564Z,11.94
2022-10-01T01:44:46.101Z,12.00
2022-10-01T01:49:00.650Z,11.91
2022-10-01T01:53:12.229Z,11.88
2022-10-01T01:57:23.821Z,11.92
2022-10-01T02:01:42.611Z,12.03
2022-10-01T02:06:22.240Z,12.03
2022-10-01T02:10:36.963Z,11.85
2022-10-01T02:14:59.501Z,11.96
2022-10-01T02:19:41.213Z,11.92
2022-10-01T02:23:59.431Z,11.88
2022-10-01T02:28:16.380Z,11.89
2022-10-01T02:32:31.232Z,11.88
2022-10-01T02:36:45.270Z,11.91
2022-10-01T02:41:00.965Z,11.89
2022-10-01T02:45:15.460Z,11.96
2022-10-01T02:49:30.815Z,11.92
2022-10-01T02:53:49.007Z,11.97
2022-10-01T02:58:00.499Z,12.01
2022-10-01T03:02:12.300Z,11.94
2022-10-01T03:06:23.911Z,12.06
2022-10-01T03:10:35.458Z,12.05
2022-10-01T03:14:47.589Z,12.00
2022-10-01T03:18:59.165Z,11.99
2022-10-01T03:23:10.685Z,11.99
2022-10-01T03:27:22.440Z,12.00
2022-10-01T03:31:34.274Z,12.02
2022-10-01T03:35:46.049Z,12.03
2022-10-01T03:39:57.549Z,12.00
2022-10-01T03:44:09.021Z,12.15
2022-10-01T03:48:21.126Z,12.05
2022-10-01T03:52:32.610Z,12.13
2022-10-01T03:56:44.115Z,12.13
2022-10-01T04:00:55.930Z,12.17
2022-10-01T04:05:08.264Z,12.26
2022-10-01T04:09:20.919Z,12.19
2022-10-01T04:13:33.181Z,12.23
2022-10-01T04:17:46.057Z,12.34
2022-10-01T04:21:57.744Z,12.34
2022-10-01T04:26:09.577Z,12.36
2022-10-01T04:30:21.649Z,12.40
2022-10-01T04:34:51.777Z,12.47
2022-10-01T04:39:03.327Z,12.42
2022-10-01T04:43:14.883Z,12.52
2022-10-01T04:47:26.399Z,12.47
2022-10-01T04:51:37.898Z,12.55
2022-10-01T04:55:49.438Z,12.60
2022-10-01T05:00:01.996Z,12.50
2022-10-01T05:04:13.526Z,12.52
2022-10-01T05:08:25.016Z,12.62
2022-10-01T05:12:36.533Z,12.62
2022-10-01T05:16:48.075Z,12.71
2022-10-01T05:20:59.626Z,12.70
2022-10-01T05:25:11.236Z,12.75
2022-10-01T05:29:23.043Z,12.76
2022-10-01T05:33:34.686Z,12.86
2022-10-01T05:37:46.197Z,12.82
2022-10-01T05:41:59.137Z,12.94
2022-10-01T05:46:12.191Z,12.93
2022-10-01T05:50:25.364Z,12.89
2022-10-01T05:54:37.428Z,12.92
2022-10-01T05:58:48.957Z,12.95
2022-10-01T06:03:02.575Z,13.09
2022-10-01T06:07:14.179Z,13.01
2022-10-01T06:11:26.834Z,13.09
2022-10-01T06:15:38.944Z,13.10
2022-10-01T06:19:51.486Z,13.12
2022-10-01T06:24:03.044Z,13.13
2022-10-01T06:28:14.822Z,13.20
2022-10-01T06:32:26.481Z,13.15
2022-10-01T06:36:37.997Z,13.38
2022-10-01T06:40:57.960Z,13.53
2022-10-01T06:45:09.905Z,13.55
2022-10-01T06:49:22.202Z,13.61
2022-10-01T06:53:34.042Z,13.62
2022-10-01T06:57:46.322Z,13.73
2022-10-01T07:01:57.926Z,13.78
2022-10-01T07:06:11.216Z,13.94
2022-10-01T07:10:23.277Z,13.96
2022-10-01T07:14:35.253Z,14.16
2022-10-01T07:18:46.785Z,14.26
2022-10-01T07:22:59.636Z,14.28
2022-10-01T07:27:11.160Z,14.29
2022-10-01T07:31:24.250Z,14.35
2022-10-01T07:35:38.160Z,14.43
2022-10-01T07:39:49.803Z,14.53
2022-10-01T07:44:03.379Z,14.63
2022-10-01T07:48:15.096Z,14.76
2022-10-01T07:52:26.637Z,14.90
2022-10-01T07:56:38.576Z,14.96
2022-10-01T08:00:52.072Z,14.94
2022-10-01T08:05:18.738Z,15.01
2022-10-01T08:09:30.419Z,15.19
2022-10-01T08:13:42.793Z,15.26
2022-10-01T08:17:54.364Z,15.29
2022-10-01T08:22:07.127Z,15.31
2022-10-01T08:26:18.657Z,15.32
2022-10-01T08:30:30.916Z,15.56
2022-10-01T08:34:42.644Z,15.59
2022-10-01T08:38:54.265Z,15.51
2022-10-01T08:43:07.448Z,15.65
2022-10-01T08:47:31.196Z,16.08
2022-10-01T08:51:58.387Z,16.82
2022-10-01T08:56:21.721Z,17.80
2022-10-01T09:00:36.624Z,17.78
2022-10-01T09:04:51.131Z,17.22
2022-10-01T09:09:23.947Z,16.65
2022-10-01T09:13:57.503Z,16.47
2022-10-01T09:18:37.459Z,16.23
2022-10-01T09:23:28.883Z,16.12
2022-10-01T09:27:40.712Z,15.76
2022-10-01T09:31:53.630Z,15.61
2022-10-01T09:36:16.073Z,15.56
2022-10-01T09:40:35.607Z,15.48
2022-10-01T09:44:47.589Z,15.72
2022-10-01T09:49:28.041Z,16.76
2022-10-01T09:53:46.764Z,17.53
2022-10-01T09:58:09.496Z,17.53
2022-10-01T10:02:31.428Z,17.45
2022-10-01T10:06:43.103Z,17.88
2022-10-01T10:11:01.629Z,19.07
2022-10-01T10:15:17.632Z,20.37
2022-10-01T10:19:30.993Z,21.19
2022-10-01T10:23:50.869Z,21.91
2022-10-01T10:28:02.751Z,22.31
2022-10-01T10:32:41.487Z,21.53
2022-10-01T10:37:07.418Z,21.64
2022-10-01T10:41:26.058Z,21.40
2022-10-01T10:45:39.770Z,20.93
2022-10-01T10:49:53.746Z,20.49
2022-10-01T10:54:18.224Z,19.87
2022-10-01T10:58:33.333Z,19.27
2022-10-01T11:03:06.494Z,18.50
2022-10-01T11:07:23.704Z,17.92
2022-10-01T11:11:55.129Z,17.46
2022-10-01T11:16:18.687Z,17.05
2022-10-01T11:20:41.262Z,17.30
2022-10-01T11:25:23.722Z,18.51
2022-10-01T11:30:03.299Z,19.65
2022-10-01T11:34:25.228Z,20.17
2022-10-01T11:38:56.174Z,20.58
2022-10-01T11:43:32.377Z,20.61
2022-10-01T11:47:54.692Z,20.23
2022-10-01T11:52:26.239Z,19.60
2022-10-01T11:57:04.008Z,19.08
2022-10-01T12:01:25.096Z,19.11
2022-10-01T12:05:38.806Z,19.21
2022-10-01T12:10:17.716Z,19.59
2022-10-01T12:14:40.409Z,19.79
2022-10-01T12:19:07.249Z,20.02
2022-10-01T12:23:34.666Z,20.13
2022-10-01T12:28:28.294Z,20.15
2022-10-01T12:32:53.400Z,19.38
2022-10-01T12:37:26.960Z,18.67
2022-10-01T12:41:57.171Z,17.96
2022-10-01T12:46:27.577Z,17.93
2022-10-01T12:50:39.299Z,18.05
2022-10-01T12:55:13.705Z,18.11
2022-10-01T12:59:41.741Z,18.18
2022-10-01T13:04:03.644Z,18.46
2022-10-01T13:08:18.288Z,18.55
2022-10-01T13:12:59.495Z,18.60
2022-10-01T13:17:24.255Z,18.35
2022-10-01T13:22:11.119Z,18.21
2022-10-01T13:26:36.708Z,17.90
2022-10-01T13:30:59.098Z,17.55
2022-10-01T13:35:39.159Z,17.55
2022-10-01T13:39:50.707Z,17.64
2022-10-01T13:44:08.150Z,17.98
2022-10-01T13:48:21.187Z,18.13
2022-10-01T13:52:34.011Z,18.12
2022-10-01T13:56:45.484Z,18.01
2022-10-01T14:01:00.338Z,17.94
2022-10-01T14:05:17.728Z,17.96
2022-10-01T14:09:33.871Z,18.11
2022-10-01T14:14:09.425Z,18.33
2022-10-01T14:18:23.321Z,18.37
2022-10-01T14:22:59.465Z,18.41
2022-10-01T14:27:29.794Z,18.31
2022-10-01T14:31:50.909Z,18.15
2022-10-01T14:36:15.415Z,18.11
2022-10-01T14:40:36.634Z,18.18
2022-10-01T14:44:48.281Z,18.18
2022-10-01T14:49:00.639Z,18.08
2022-10-01T14:53:18.276Z,18.04
2022-10-01T14:57:33.569Z,18.15
2022-10-01T15:01:54.497Z,18.22
2022-10-01T15:06:18.053Z,18.24
2022-10-01T15:10:29.581Z,18.12
2022-10-01T15:14:42.811Z,17.95
2022-10-01T15:19:00.627Z,17.74
2022-10-01T15:23:12.135Z,17.74
2022-10-01T15:27:24.758Z,17.72
2022-10-01T15:31:36.948Z,17.63
2022-10-01T15:35:48.550Z,17.54
2022-10-01T15:40:01.295Z,17.43
2022-10-01T15:44:42.632Z,17.37
2022-10-01T15:49:17.259Z,17.27
2022-10-01T15:53:29.840Z,17.27
2022-10-01T15:57:42.070Z,17.25
2022-10-01T16:01:53.651Z,17.31
2022-10-01T16:06:08.382Z,17.19
2022-10-01T16:10:40.769Z,17.05
2022-10-01T16:15:03.956Z,16.92
2022-10-01T16:19:31.182Z,16.87
2022-10-01T16:24:27.666Z,16.73
2022-10-01T16:28:39.199Z,16.60
2022-10-01T16:32:50.719Z,16.49
2022-10-01T16:37:02.326Z,16.39
2022-10-01T16:41:24.652Z,16.41
2022-10-01T16:45:42.613Z,16.28
2022-10-01T16:49:54.238Z,16.17
2022-10-01T16:54:07.631Z,16.05
2022-10-01T16:58:20.221Z,15.85
2022-10-01T17:02:31.772Z,15.78
2022-10-01T17:06:43.352Z,15.66
2022-10-01T17:10:59.793Z,15.51
2022-10-01T17:15:17.649Z,15.39
2022-10-01T17:19:29.286Z,15.32
2022-10-01T17:23:40.812Z,15.21
2022-10-01T17:27:52.481Z,15.21
2022-10-01T17:32:04.099Z,15.25
2022-10-01T17:36:15.706Z,15.30
2022-10-01T17:40:27.198Z,15.40
2022-10-01T17:44:38.673Z,15.43
2022-10-01T17:48:50.831Z,15.52
2022-10-01T17:53:02.355Z,15.42
2022-10-01T17:57:13.909Z,15.37
2022-10-01T18:01:25.431Z,15.30
2022-10-01T18:05:37.013Z,15.28
2022-10-01T18:09:48.473Z,15.28
2022-10-01T18:13:59.995Z,15.17
2022-10-01T18:19:51.461Z,15.03
2022-10-01T18:22:42.983Z,14.91
2022-10-01T18:26:54.865Z,14.74
2022-10-01T18:31:18.724Z,14.60
2022-10-01T18:35:33.103Z,14.54
2022-10-01T18:39:49.734Z,14.45
2022-10-01T18:44:01.589Z,14.35
2022-10-01T18:48:31.838Z,14.25
2022-10-01T18:52:50.353Z,14.11
2022-10-01T18:57:33.029Z,14.05
2022-10-01T19:02:02.666Z,14.02
2022-10-01T19:06:26.425Z,14.04
2022-10-01T19:10:54.996Z,13.94
2022-10-01T19:15:16.972Z,13.81
2022-10-01T19:20:06.066Z,13.78
2022-10-01T19:24:35.801Z,13.69
2022-10-01T19:29:12.018Z,13.60
2022-10-01T19:33:24.481Z,13.52
2022-10-01T19:37:39.246Z,13.49
2022-10-01T19:42:06.083Z,13.42
2022-10-01T19:46:26.604Z,13.34
2022-10-01T19:50:43.345Z,13.29
2022-10-01T19:55:00.652Z,13.24
2022-10-01T19:59:14.604Z,13.26
2022-10-01T20:03:48.417Z,13.20
2022-10-01T20:08:06.179Z,13.25
2022-10-01T20:12:28.141Z,13.23
2022-10-01T20:16:47.063Z,13.32
2022-10-01T20:21:37.598Z,13.40
2022-10-01T20:26:10.384Z,13.37
2022-10-01T20:30:23.753Z,13.27
2022-10-01T20:34:35.123Z,13.23
2022-10-01T20:39:03.449Z,13.15
2022-10-01T20:43:21.103Z,13.04
2022-10-01T20:47:49.155Z,12.94
2022-10-01T20:52:13.017Z,12.90
2022-10-01T20:56:33.481Z,12.79
2022-10-01T21:00:47.571Z,12.73
2022-10-01T21:05:07.477Z,12.69
2022-10-01T21:09:31.006Z,12.66
2022-10-01T21:14:26.024Z,12.58
2022-10-01T21:18:57.261Z,12.56
2022-10-01T21:23:11.579Z,12.56
2022-10-01T21:27:54.795Z,12.50
2022-10-01T21:32:36.474Z,12.50
2022-10-01T21:36:58.540Z,12.46
2022-10-01T21:41:27.918Z,12.37
2022-10-01T21:45:59.674Z,12.31
2022-10-01T21:50:20.613Z,12.31
2022-10-01T21:55:05.635Z,12.26
2022-10-01T21:59:49.463Z,12.20
2022-10-01T22:04:12.665Z,12.17
2022-10-01T22:08:46.301Z,12.13
2022-10-01T22:13:02.246Z,12.09
2022-10-01T22:17:22.683Z,12.03
2022-10-01T22:21:39.429Z,12.00
2022-10-01T22:25:57.360Z,11.96
2022-10-01T22:30:17.108Z,11.97
2022-10-01T22:34:37.611Z,12.00
2022-10-01T22:38:55.549Z,12.04
2022-10-01T22:43:11.058Z,12.05
2022-10-01T22:47:43.132Z,12.08
2022-10-01T22:52:28.669Z,12.19
2022-10-01T22:56:59.182Z,12.34
2022-10-01T23:01:41.082Z,12.44
2022-10-01T23:06:04.925Z,12.51
2022-10-01T23:10:24.100Z,12.62
2022-10-01T23:15:05.980Z,12.74
2022-10-01T23:19:28.294Z,12.90
2022-10-01T23:23:42.994Z,13.05
2022-10-01T23:28:10.632Z,13.23
2022-10-01T23:32:34.234Z,13.35
2022-10-01T23:37:02.819Z,13.42
2022-10-01T23:41:18.092Z,13.49
2022-10-01T23:45:44.979Z,13.57
2022-10-01T23:50:00.404Z,13.56
2022-10-01T23:54:27.080Z,13.65
2022-10-01T23:58:55.400Z,13.66
